Time,TemperatureF,DewpointF,PressureIn,WindDirection,WindDirectionDegrees,WindSpeedMPH,WindSpeedGustMPH,Humidity,HourlyPrecipIn,Conditions,Clouds,dailyrainin,SoftwareType,DateUTC
2013-08-06 00:02:00,54.0,-99.9,29.84,South,180,1.0,11.0,0,-99.99,,,0.01,,2013-08-06 04:02:00,
2013-08-06 01:43:00,51.0,-99.9,29.86,WNW,292,3.0,10.0,0,-99.99,,,0.01,,2013-08-06 05:43:00,
2013-08-06 01:53:00,51.0,-99.9,29.86,WNW,292,3.0,10.0,0,-99.99,,,0.01,,2013-08-06 05:53:00,
2013-08-06 02:02:00,51.0,-99.9,29.86,WNW,292,3.0,10.0,0,-99.99,,,0.01,,2013-08-06 06:02:00,
2013-08-06 02:43:00,49.0,-99.9,29.87,NW,315,5.0,10.0,0,-99.99,,,0.01,,2013-08-06 06:43:00,
2013-08-06 02:52:00,49.0,-99.9,29.87,NW,315,5.0,10.0,0,-99.99,,,0.01,,2013-08-06 06:52:00,
2013-08-06 03:01:00,49.0,-99.9,29.87,NW,315,5.0,10.0,0,-99.99,,,0.01,,2013-08-06 07:01:00,
2013-08-06 03:44:00,48.0,-99.9,29.88,SW,225,5.0,8.0,0,-99.99,,,0.01,,2013-08-06 07:44:00,
2013-08-06 03:53:00,48.0,-99.9,29.88,SW,225,5.0,8.0,0,-99.99,,,0.01,,2013-08-06 07:53:00,
2013-08-06 04:02:00,48.0,-99.9,29.88,SW,225,5.0,8.0,0,-99.99,,,0.01,,2013-08-06 08:02:00,
2013-08-06 04:43:00,45.0,-99.9,29.90,South,180,4.0,9.0,0,-99.99,,,0.01,,2013-08-06 08:43:00,
2013-08-06 04:52:00,45.0,-99.9,29.90,South,180,4.0,9.0,0,-99.99,,,0.01,,2013-08-06 08:52:00,
2013-08-06 05:01:00,45.0,-99.9,29.90,South,180,4.0,9.0,0,-99.99,,,0.01,,2013-08-06 09:01:00,
2013-08-06 05:43:00,45.0,-99.9,29.91,SW,225,8.0,8.0,0,-99.99,,,0.00,,2013-08-06 09:43:00,
2013-08-06 05:52:00,45.0,-99.9,29.91,SW,225,8.0,8.0,0,-99.99,,,0.00,,2013-08-06 09:52:00,
2013-08-06 06:02:00,45.0,-99.9,29.91,SW,225,8.0,8.0,0,-99.99,,,0.00,,2013-08-06 10:02:00,
2013-08-06 06:43:00,45.0,-99.9,29.93,SSW,202,5.0,9.0,0,-99.99,,,0.00,,2013-08-06 10:43:00,
2013-08-06 06:53:00,45.0,-99.9,29.93,SSW,202,5.0,9.0,0,-99.99,,,0.00,,2013-08-06 10:53:00,
2013-08-06 07:02:00,45.0,-99.9,29.93,SSW,202,5.0,9.0,0,-99.99,,,0.00,,2013-08-06 11:02:00,
2013-08-06 07:43:00,47.0,-99.9,29.94,SW,225,4.0,11.0,0,-99.99,,,0.00,,2013-08-06 11:43:00,
2013-08-06 07:53:00,47.0,-99.9,29.94,SW,225,4.0,11.0,0,-99.99,,,0.00,,2013-08-06 11:53:00,
2013-08-06 08:02:00,47.0,-99.9,29.94,SW,225,4.0,11.0,0,-99.99,,,0.00,,2013-08-06 12:02:00,
2013-08-06 08:43:00,54.0,-99.9,29.95,NW,315,6.0,9.0,0,-99.99,,,0.00,,2013-08-06 12:43:00,
2013-08-06 08:52:00,54.0,-99.9,29.95,NW,315,6.0,9.0,0,-99.99,,,0.00,,2013-08-06 12:52:00,
2013-08-06 09:02:00,54.0,-99.9,29.95,NW,315,6.0,9.0,0,-99.99,,,0.00,,2013-08-06 13:02:00,
2013-08-06 09:42:00,60.0,-99.9,29.95,WNW,292,4.0,11.0,0,-99.99,,,0.00,,2013-08-06 13:42:00,
2013-08-06 09:53:00,60.0,-99.9,29.95,WNW,292,4.0,11.0,0,-99.99,,,0.00,,2013-08-06 13:53:00,
2013-08-06 10:01:00,60.0,-99.9,29.95,WNW,292,4.0,11.0,0,-99.99,,,0.00,,2013-08-06 14:01:00,
2013-08-06 10:42:00,66.0,-99.9,29.94,WNW,292,5.0,12.0,0,-99.99,,,0.00,,2013-08-06 14:42:00,
2013-08-06 10:53:00,66.0,-99.9,29.94,WNW,292,5.0,12.0,0,-99.99,,,0.00,,2013-08-06 14:53:00,
2013-08-06 11:02:00,66.0,-99.9,29.94,WNW,292,5.0,12.0,0,-99.99,,,0.00,,2013-08-06 15:02:00,
2013-08-06 22:43:00,59.0,-99.9,30.05,SW,225,2.0,19.0,0,-99.99,,,0.00,,2013-08-07 02:43:00,
2013-08-06 22:53:00,59.0,-99.9,30.05,SW,225,2.0,19.0,0,-99.99,,,0.00,,2013-08-07 02:53:00,
2013-08-06 23:01:00,59.0,-99.9,30.05,SW,225,2.0,19.0,0,-99.99,,,0.00,,2013-08-07 03:01:00,
2013-08-06 23:43:00,58.0,-99.9,30.05,SW,225,3.0,7.0,0,-99.99,,,0.00,,2013-08-07 03:43:00,
2013-08-06 23:52:00,58.0,-99.9,30.05,SW,225,3.0,7.0,0,-99.99,,,0.00,,2013-08-07 03:52:00,